sensor_id;sensor_type;location;lat;lon;timestamp;P1;durP1;ratioP1;P2;durP2;ratioP2
78372;SDS011;67656;52.074;4.758;2023-04-19T00:03:04;11.37;;;5.00;;
78372;SDS011;67656;52.074;4.758;2023-04-19T00:08:05;9.30;;;4.63;;
78372;SDS011;67656;52.074;4.758;2023-04-19T00:13:06;10.23;;;4.43;;
78372;SDS011;67656;52.074;4.758;2023-04-19T00:18:06;10.30;;;5.00;;
78372;SDS011;67656;52.074;4.758;2023-04-19T00:23:07;12.60;;;4.60;;
78372;SDS011;67656;52.074;4.758;2023-04-19T00:28:07;11.53;;;4.60;;
78372;SDS011;67656;52.074;4.758;2023-04-19T00:33:08;12.67;;;5.30;;
78372;SDS011;67656;52.074;4.758;2023-04-19T00:38:08;10.67;;;4.80;;
78372;SDS011;67656;52.074;4.758;2023-04-19T00:43:09;10.03;;;4.80;;
78372;SDS011;67656;52.074;4.758;2023-04-19T00:48:10;10.10;;;4.63;;
78372;SDS011;67656;52.074;4.758;2023-04-19T00:53:12;10.63;;;4.93;;
78372;SDS011;67656;52.074;4.758;2023-04-19T00:58:12;10.27;;;5.07;;
78372;SDS011;67656;52.074;4.758;2023-04-19T01:03:13;11.43;;;5.10;;
78372;SDS011;67656;52.074;4.758;2023-04-19T01:08:13;9.67;;;4.70;;
78372;SDS011;67656;52.074;4.758;2023-04-19T01:13:14;12.63;;;5.17;;
78372;SDS011;67656;52.074;4.758;2023-04-19T01:18:14;11.10;;;5.17;;
78372;SDS011;67656;52.074;4.758;2023-04-19T01:23:16;11.87;;;5.50;;
78372;SDS011;67656;52.074;4.758;2023-04-19T01:28:16;12.73;;;5.07;;
78372;SDS011;67656;52.074;4.758;2023-04-19T01:33:17;10.93;;;5.17;;
78372;SDS011;67656;52.074;4.758;2023-04-19T01:38:17;10.87;;;5.00;;
78372;SDS011;67656;52.074;4.758;2023-04-19T01:43:17;13.07;;;5.80;;
78372;SDS011;67656;52.074;4.758;2023-04-19T01:48:18;11.83;;;5.20;;
78372;SDS011;67656;52.074;4.758;2023-04-19T01:53:18;12.63;;;5.67;;
78372;SDS011;67656;52.074;4.758;2023-04-19T01:58:19;13.50;;;6.43;;
78372;SDS011;67656;52.074;4.758;2023-04-19T02:03:20;11.57;;;5.60;;
78372;SDS011;67656;52.074;4.758;2023-04-19T02:08:20;12.33;;;5.30;;
78372;SDS011;67656;52.074;4.758;2023-04-19T02:13:20;11.70;;;5.40;;
78372;SDS011;67656;52.074;4.758;2023-04-19T02:18:21;14.27;;;6.67;;
78372;SDS011;67656;52.074;4.758;2023-04-19T02:23:21;13.67;;;5.77;;
78372;SDS011;67656;52.074;4.758;2023-04-19T02:28:22;14.63;;;5.83;;
78372;SDS011;67656;52.074;4.758;2023-04-19T02:33:24;15.87;;;6.40;;
78372;SDS011;67656;52.074;4.758;2023-04-19T02:38:26;12.23;;;6.20;;
78372;SDS011;67656;52.074;4.758;2023-04-19T02:43:27;17.03;;;6.37;;
78372;SDS011;67656;52.074;4.758;2023-04-19T02:48:27;12.37;;;6.10;;
78372;SDS011;67656;52.074;4.758;2023-04-19T02:53:28;13.73;;;6.20;;
78372;SDS011;67656;52.074;4.758;2023-04-19T02:58:28;15.43;;;6.72;;
78372;SDS011;67656;52.074;4.758;2023-04-19T03:03:36;12.87;;;5.93;;
78372;SDS011;67656;52.074;4.758;2023-04-19T03:08:37;16.23;;;6.30;;
78372;SDS011;67656;52.074;4.758;2023-04-19T03:13:38;14.63;;;6.43;;
78372;SDS011;67656;52.074;4.758;2023-04-19T03:18:39;14.48;;;6.65;;
78372;SDS011;67656;52.074;4.758;2023-04-19T03:23:40;13.20;;;5.73;;
78372;SDS011;67656;52.074;4.758;2023-04-19T03:28:40;15.60;;;6.13;;
78372;SDS011;67656;52.074;4.758;2023-04-19T03:33:50;15.73;;;6.22;;
78372;SDS011;67656;52.074;4.758;2023-04-19T03:38:52;14.73;;;6.60;;
78372;SDS011;67656;52.074;4.758;2023-04-19T03:43:55;15.33;;;6.57;;
78372;SDS011;67656;52.074;4.758;2023-04-19T03:48:57;14.52;;;6.40;;
78372;SDS011;67656;52.074;4.758;2023-04-19T03:53:59;13.23;;;6.55;;
78372;SDS011;67656;52.074;4.758;2023-04-19T03:59:01;13.27;;;6.22;;
78372;SDS011;67656;52.074;4.758;2023-04-19T04:04:09;13.30;;;6.05;;
78372;SDS011;67656;52.074;4.758;2023-04-19T04:09:09;11.00;;;5.43;;
78372;SDS011;67656;52.074;4.758;2023-04-19T04:14:10;14.07;;;6.13;;
78372;SDS011;67656;52.074;4.758;2023-04-19T04:19:12;10.82;;;4.78;;
78372;SDS011;67656;52.074;4.758;2023-04-19T04:24:14;12.18;;;5.35;;
78372;SDS011;67656;52.074;4.758;2023-04-19T04:29:27;17.33;;;6.68;;
78372;SDS011;67656;52.074;4.758;2023-04-19T04:34:30;12.75;;;5.30;;
78372;SDS011;67656;52.074;4.758;2023-04-19T04:39:38;14.27;;;6.07;;
78372;SDS011;67656;52.074;4.758;2023-04-19T04:44:40;11.18;;;5.78;;
78372;SDS011;67656;52.074;4.758;2023-04-19T04:49:42;11.75;;;5.95;;
78372;SDS011;67656;52.074;4.758;2023-04-19T04:54:43;17.58;;;6.03;;
78372;SDS011;67656;52.074;4.758;2023-04-19T04:59:53;12.18;;;5.60;;
78372;SDS011;67656;52.074;4.758;2023-04-19T05:04:55;14.70;;;5.90;;
78372;SDS011;67656;52.074;4.758;2023-04-19T05:09:55;12.27;;;5.65;;
78372;SDS011;67656;52.074;4.758;2023-04-19T05:15:02;11.75;;;5.32;;
78372;SDS011;67656;52.074;4.758;2023-04-19T05:20:02;12.83;;;5.33;;
78372;SDS011;67656;52.074;4.758;2023-04-19T05:25:04;12.67;;;5.80;;
78372;SDS011;67656;52.074;4.758;2023-04-19T05:30:05;11.57;;;5.40;;
78372;SDS011;67656;52.074;4.758;2023-04-19T05:35:08;13.88;;;5.40;;
78372;SDS011;67656;52.074;4.758;2023-04-19T05:40:09;14.30;;;5.50;;
78372;SDS011;67656;52.074;4.758;2023-04-19T05:45:09;10.47;;;5.00;;
78372;SDS011;67656;52.074;4.758;2023-04-19T05:50:12;12.07;;;5.82;;
78372;SDS011;67656;52.074;4.758;2023-04-19T05:55:19;13.23;;;5.80;;
78372;SDS011;67656;52.074;4.758;2023-04-19T06:00:20;11.65;;;5.30;;
78372;SDS011;67656;52.074;4.758;2023-04-19T06:05:30;11.10;;;5.07;;
78372;SDS011;67656;52.074;4.758;2023-04-19T06:10:30;10.82;;;5.25;;
78372;SDS011;67656;52.074;4.758;2023-04-19T06:15:31;11.40;;;5.10;;
78372;SDS011;67656;52.074;4.758;2023-04-19T06:20:31;11.45;;;5.15;;
78372;SDS011;67656;52.074;4.758;2023-04-19T06:25:31;11.98;;;4.60;;
78372;SDS011;67656;52.074;4.758;2023-04-19T06:30:32;10.52;;;4.50;;
78372;SDS011;67656;52.074;4.758;2023-04-19T06:35:32;10.02;;;4.97;;
78372;SDS011;67656;52.074;4.758;2023-04-19T06:40:33;10.52;;;4.65;;
78372;SDS011;67656;52.074;4.758;2023-04-19T06:45:33;8.52;;;4.32;;
78372;SDS011;67656;52.074;4.758;2023-04-19T06:50:33;7.00;;;3.70;;
78372;SDS011;67656;52.074;4.758;2023-04-19T06:55:34;7.78;;;3.75;;
78372;SDS011;67656;52.074;4.758;2023-04-19T07:00:34;9.25;;;4.40;;
78372;SDS011;67656;52.074;4.758;2023-04-19T07:05:37;9.37;;;3.93;;
78372;SDS011;67656;52.074;4.758;2023-04-19T07:10:38;9.70;;;4.13;;
78372;SDS011;67656;52.074;4.758;2023-04-19T07:15:38;9.85;;;4.63;;
78372;SDS011;67656;52.074;4.758;2023-04-19T07:20:39;7.07;;;3.85;;
78372;SDS011;67656;52.074;4.758;2023-04-19T07:25:39;7.40;;;4.20;;
78372;SDS011;67656;52.074;4.758;2023-04-19T07:30:40;6.00;;;3.67;;
78372;SDS011;67656;52.074;4.758;2023-04-19T07:35:40;8.02;;;4.43;;
78372;SDS011;67656;52.074;4.758;2023-04-19T07:40:40;9.25;;;3.70;;
78372;SDS011;67656;52.074;4.758;2023-04-19T07:45:41;7.20;;;3.75;;
78372;SDS011;67656;52.074;4.758;2023-04-19T07:50:41;7.30;;;3.70;;
78372;SDS011;67656;52.074;4.758;2023-04-19T07:55:42;6.45;;;3.72;;
78372;SDS011;67656;52.074;4.758;2023-04-19T08:00:42;8.88;;;3.92;;
78372;SDS011;67656;52.074;4.758;2023-04-19T08:05:42;6.32;;;3.75;;
78372;SDS011;67656;52.074;4.758;2023-04-19T08:10:43;6.95;;;3.38;;
78372;SDS011;67656;52.074;4.758;2023-04-19T08:15:43;6.68;;;3.05;;
78372;SDS011;67656;52.074;4.758;2023-04-19T08:20:45;5.93;;;2.50;;
78372;SDS011;67656;52.074;4.758;2023-04-19T08:25:46;3.80;;;2.50;;
78372;SDS011;67656;52.074;4.758;2023-04-19T08:30:46;4.10;;;2.47;;
78372;SDS011;67656;52.074;4.758;2023-04-19T08:35:46;6.88;;;2.40;;
78372;SDS011;67656;52.074;4.758;2023-04-19T08:40:49;5.50;;;2.38;;
78372;SDS011;67656;52.074;4.758;2023-04-19T08:45:51;3.33;;;2.00;;
78372;SDS011;67656;52.074;4.758;2023-04-19T08:50:55;5.80;;;2.50;;
78372;SDS011;67656;52.074;4.758;2023-04-19T08:55:57;4.57;;;2.40;;
78372;SDS011;67656;52.074;4.758;2023-04-19T09:00:59;4.85;;;2.30;;
78372;SDS011;67656;52.074;4.758;2023-04-19T09:06:00;3.83;;;2.38;;
78372;SDS011;67656;52.074;4.758;2023-04-19T09:11:00;3.97;;;2.28;;
78372;SDS011;67656;52.074;4.758;2023-04-19T09:16:01;5.55;;;2.83;;
78372;SDS011;67656;52.074;4.758;2023-04-19T09:21:03;4.40;;;2.30;;
78372;SDS011;67656;52.074;4.758;2023-04-19T09:26:03;3.88;;;2.10;;
78372;SDS011;67656;52.074;4.758;2023-04-19T09:31:10;3.58;;;2.00;;
78372;SDS011;67656;52.074;4.758;2023-04-19T09:36:11;4.35;;;2.08;;
78372;SDS011;67656;52.074;4.758;2023-04-19T09:41:25;3.35;;;1.83;;
78372;SDS011;67656;52.074;4.758;2023-04-19T09:46:33;3.28;;;1.73;;
78372;SDS011;67656;52.074;4.758;2023-04-19T09:51:41;2.97;;;1.70;;
78372;SDS011;67656;52.074;4.758;2023-04-19T09:56:43;2.88;;;1.50;;
78372;SDS011;67656;52.074;4.758;2023-04-19T10:01:44;2.58;;;1.40;;
78372;SDS011;67656;52.074;4.758;2023-04-19T10:06:49;2.45;;;1.60;;
78372;SDS011;67656;52.074;4.758;2023-04-19T10:11:53;2.63;;;1.30;;
78372;SDS011;67656;52.074;4.758;2023-04-19T10:16:55;5.40;;;1.33;;
78372;SDS011;67656;52.074;4.758;2023-04-19T10:21:56;3.03;;;1.35;;
78372;SDS011;67656;52.074;4.758;2023-04-19T10:27:09;1.90;;;1.23;;
78372;SDS011;67656;52.074;4.758;2023-04-19T10:32:14;2.60;;;1.30;;
78372;SDS011;67656;52.074;4.758;2023-04-19T10:37:14;2.97;;;1.20;;
78372;SDS011;67656;52.074;4.758;2023-04-19T10:42:15;4.10;;;1.10;;
78372;SDS011;67656;52.074;4.758;2023-04-19T10:47:39;1.60;;;1.10;;
78372;SDS011;67656;52.074;4.758;2023-04-19T10:52:45;3.00;;;1.27;;
78372;SDS011;67656;52.074;4.758;2023-04-19T10:58:04;2.15;;;1.20;;
78372;SDS011;67656;52.074;4.758;2023-04-19T11:09:00;3.13;;;1.20;;
78372;SDS011;67656;52.074;4.758;2023-04-19T11:14:01;3.35;;;1.10;;
78372;SDS011;67656;52.074;4.758;2023-04-19T11:19:02;2.22;;;0.82;;
78372;SDS011;67656;52.074;4.758;2023-04-19T11:24:11;2.60;;;1.15;;
78372;SDS011;67656;52.074;4.758;2023-04-19T11:29:12;4.35;;;1.20;;
78372;SDS011;67656;52.074;4.758;2023-04-19T11:34:13;3.30;;;1.30;;
78372;SDS011;67656;52.074;4.758;2023-04-19T11:39:13;1.67;;;1.05;;
78372;SDS011;67656;52.074;4.758;2023-04-19T11:44:17;2.83;;;1.10;;
78372;SDS011;67656;52.074;4.758;2023-04-19T11:49:25;1.98;;;1.08;;
78372;SDS011;67656;52.074;4.758;2023-04-19T11:54:26;2.58;;;1.13;;
78372;SDS011;67656;52.074;4.758;2023-04-19T11:59:27;3.55;;;1.20;;
78372;SDS011;67656;52.074;4.758;2023-04-19T12:04:28;3.72;;;1.45;;
78372;SDS011;67656;52.074;4.758;2023-04-19T12:09:34;2.63;;;1.57;;
78372;SDS011;67656;52.074;4.758;2023-04-19T12:14:35;2.45;;;1.25;;
78372;SDS011;67656;52.074;4.758;2023-04-19T12:19:36;2.42;;;1.30;;
78372;SDS011;67656;52.074;4.758;2023-04-19T12:24:41;5.95;;;1.45;;
78372;SDS011;67656;52.074;4.758;2023-04-19T12:29:42;4.70;;;1.30;;
78372;SDS011;67656;52.074;4.758;2023-04-19T12:34:42;2.65;;;1.38;;
78372;SDS011;67656;52.074;4.758;2023-04-19T12:39:43;2.88;;;1.50;;
78372;SDS011;67656;52.074;4.758;2023-04-19T12:44:43;2.85;;;1.63;;
78372;SDS011;67656;52.074;4.758;2023-04-19T12:49:44;3.00;;;1.50;;
78372;SDS011;67656;52.074;4.758;2023-04-19T12:54:44;4.85;;;1.55;;
78372;SDS011;67656;52.074;4.758;2023-04-19T12:59:44;3.10;;;1.40;;
78372;SDS011;67656;52.074;4.758;2023-04-19T13:04:45;3.50;;;1.80;;
78372;SDS011;67656;52.074;4.758;2023-04-19T13:09:45;4.03;;;2.13;;
78372;SDS011;67656;52.074;4.758;2023-04-19T13:14:46;4.65;;;2.25;;
78372;SDS011;67656;52.074;4.758;2023-04-19T13:19:46;3.22;;;1.80;;
78372;SDS011;67656;52.074;4.758;2023-04-19T13:24:46;4.63;;;2.33;;
78372;SDS011;67656;52.074;4.758;2023-04-19T13:29:47;4.03;;;2.03;;
78372;SDS011;67656;52.074;4.758;2023-04-19T13:34:47;7.28;;;3.10;;
78372;SDS011;67656;52.074;4.758;2023-04-19T13:39:48;5.90;;;2.17;;
78372;SDS011;67656;52.074;4.758;2023-04-19T13:44:48;4.97;;;2.08;;
78372;SDS011;67656;52.074;4.758;2023-04-19T13:49:49;4.13;;;2.20;;
78372;SDS011;67656;52.074;4.758;2023-04-19T13:54:49;6.50;;;2.05;;
78372;SDS011;67656;52.074;4.758;2023-04-19T13:59:49;3.78;;;2.22;;
78372;SDS011;67656;52.074;4.758;2023-04-19T14:04:50;4.57;;;1.92;;
78372;SDS011;67656;52.074;4.758;2023-04-19T14:09:50;2.97;;;1.83;;
78372;SDS011;67656;52.074;4.758;2023-04-19T14:14:50;3.67;;;2.00;;
78372;SDS011;67656;52.074;4.758;2023-04-19T14:20:00;3.55;;;1.90;;
78372;SDS011;67656;52.074;4.758;2023-04-19T14:25:01;2.95;;;1.60;;
78372;SDS011;67656;52.074;4.758;2023-04-19T14:30:03;3.25;;;1.67;;
78372;SDS011;67656;52.074;4.758;2023-04-19T14:35:05;4.57;;;1.60;;
78372;SDS011;67656;52.074;4.758;2023-04-19T14:40:06;3.15;;;2.00;;
78372;SDS011;67656;52.074;4.758;2023-04-19T14:45:07;3.95;;;1.92;;
78372;SDS011;67656;52.074;4.758;2023-04-19T14:50:07;3.45;;;1.90;;
78372;SDS011;67656;52.074;4.758;2023-04-19T14:55:08;4.10;;;2.22;;
78372;SDS011;67656;52.074;4.758;2023-04-19T15:00:09;3.40;;;1.80;;
78372;SDS011;67656;52.074;4.758;2023-04-19T15:05:10;4.93;;;2.08;;
78372;SDS011;67656;52.074;4.758;2023-04-19T15:10:10;3.97;;;1.70;;
78372;SDS011;67656;52.074;4.758;2023-04-19T15:15:12;4.63;;;1.98;;
78372;SDS011;67656;52.074;4.758;2023-04-19T15:20:13;6.22;;;2.42;;
78372;SDS011;67656;52.074;4.758;2023-04-19T15:25:13;3.28;;;1.70;;
78372;SDS011;67656;52.074;4.758;2023-04-19T15:30:14;7.38;;;2.58;;
78372;SDS011;67656;52.074;4.758;2023-04-19T15:35:14;4.53;;;2.28;;
78372;SDS011;67656;52.074;4.758;2023-04-19T15:40:14;2.95;;;1.75;;
78372;SDS011;67656;52.074;4.758;2023-04-19T15:45:15;8.82;;;1.75;;
78372;SDS011;67656;52.074;4.758;2023-04-19T15:50:15;3.92;;;1.88;;
78372;SDS011;67656;52.074;4.758;2023-04-19T15:55:16;4.38;;;1.90;;
78372;SDS011;67656;52.074;4.758;2023-04-19T16:00:16;4.13;;;1.90;;
78372;SDS011;67656;52.074;4.758;2023-04-19T16:05:17;7.15;;;2.22;;
78372;SDS011;67656;52.074;4.758;2023-04-19T16:10:17;7.30;;;1.75;;
78372;SDS011;67656;52.074;4.758;2023-04-19T16:15:18;4.75;;;2.00;;
78372;SDS011;67656;52.074;4.758;2023-04-19T16:20:18;3.65;;;1.80;;
78372;SDS011;67656;52.074;4.758;2023-04-19T16:25:19;4.68;;;2.03;;
78372;SDS011;67656;52.074;4.758;2023-04-19T16:30:19;3.70;;;2.05;;
78372;SDS011;67656;52.074;4.758;2023-04-19T16:35:20;4.65;;;2.03;;
78372;SDS011;67656;52.074;4.758;2023-04-19T16:40:20;6.80;;;2.20;;
78372;SDS011;67656;52.074;4.758;2023-04-19T16:45:21;4.32;;;2.28;;
78372;SDS011;67656;52.074;4.758;2023-04-19T16:50:21;6.28;;;3.00;;
78372;SDS011;67656;52.074;4.758;2023-04-19T16:55:21;5.50;;;2.38;;
78372;SDS011;67656;52.074;4.758;2023-04-19T17:00:22;5.18;;;2.28;;
78372;SDS011;67656;52.074;4.758;2023-04-19T17:05:22;4.28;;;2.15;;
78372;SDS011;67656;52.074;4.758;2023-04-19T17:10:23;5.15;;;2.53;;
78372;SDS011;67656;52.074;4.758;2023-04-19T17:15:25;6.47;;;2.83;;
78372;SDS011;67656;52.074;4.758;2023-04-19T17:20:26;5.40;;;2.58;;
78372;SDS011;67656;52.074;4.758;2023-04-19T17:25:27;6.95;;;2.88;;
78372;SDS011;67656;52.074;4.758;2023-04-19T17:30:27;5.47;;;2.38;;
78372;SDS011;67656;52.074;4.758;2023-04-19T17:35:28;6.15;;;2.53;;
78372;SDS011;67656;52.074;4.758;2023-04-19T17:40:28;5.43;;;2.40;;
78372;SDS011;67656;52.074;4.758;2023-04-19T17:45:28;5.28;;;2.40;;
78372;SDS011;67656;52.074;4.758;2023-04-19T17:50:29;7.18;;;2.40;;
78372;SDS011;67656;52.074;4.758;2023-04-19T17:55:29;8.23;;;2.90;;
78372;SDS011;67656;52.074;4.758;2023-04-19T18:00:30;5.72;;;2.63;;
78372;SDS011;67656;52.074;4.758;2023-04-19T18:05:30;5.90;;;2.33;;
78372;SDS011;67656;52.074;4.758;2023-04-19T18:10:31;5.85;;;2.53;;
78372;SDS011;67656;52.074;4.758;2023-04-19T18:15:32;9.75;;;3.30;;
78372;SDS011;67656;52.074;4.758;2023-04-19T18:20:32;8.02;;;2.97;;
78372;SDS011;67656;52.074;4.758;2023-04-19T18:25:32;7.57;;;3.08;;
78372;SDS011;67656;52.074;4.758;2023-04-19T18:30:33;6.82;;;2.65;;
78372;SDS011;67656;52.074;4.758;2023-04-19T18:35:33;6.63;;;2.78;;
78372;SDS011;67656;52.074;4.758;2023-04-19T18:40:33;6.28;;;2.10;;
78372;SDS011;67656;52.074;4.758;2023-04-19T18:45:34;7.57;;;2.50;;
78372;SDS011;67656;52.074;4.758;2023-04-19T18:50:35;11.38;;;2.70;;
78372;SDS011;67656;52.074;4.758;2023-04-19T18:55:36;8.73;;;3.58;;
78372;SDS011;67656;52.074;4.758;2023-04-19T19:00:36;4.07;;;2.22;;
78372;SDS011;67656;52.074;4.758;2023-04-19T19:05:37;5.43;;;2.33;;
78372;SDS011;67656;52.074;4.758;2023-04-19T19:10:37;5.45;;;2.35;;
78372;SDS011;67656;52.074;4.758;2023-04-19T19:15:38;5.10;;;1.85;;
78372;SDS011;67656;52.074;4.758;2023-04-19T19:20:38;6.50;;;2.03;;
78372;SDS011;67656;52.074;4.758;2023-04-19T19:25:39;6.95;;;2.03;;
78372;SDS011;67656;52.074;4.758;2023-04-19T19:30:39;4.22;;;2.10;;
78372;SDS011;67656;52.074;4.758;2023-04-19T19:35:39;3.42;;;1.80;;
78372;SDS011;67656;52.074;4.758;2023-04-19T19:40:40;6.43;;;2.83;;
78372;SDS011;67656;52.074;4.758;2023-04-19T19:45:40;4.85;;;2.30;;
78372;SDS011;67656;52.074;4.758;2023-04-19T19:50:40;4.88;;;2.13;;
78372;SDS011;67656;52.074;4.758;2023-04-19T19:55:41;5.60;;;2.03;;
78372;SDS011;67656;52.074;4.758;2023-04-19T20:00:41;4.90;;;2.00;;
78372;SDS011;67656;52.074;4.758;2023-04-19T20:05:41;5.03;;;2.00;;
78372;SDS011;67656;52.074;4.758;2023-04-19T20:10:42;5.93;;;1.80;;
78372;SDS011;67656;52.074;4.758;2023-04-19T20:15:42;7.43;;;1.90;;
78372;SDS011;67656;52.074;4.758;2023-04-19T20:20:44;4.50;;;1.97;;
78372;SDS011;67656;52.074;4.758;2023-04-19T20:25:45;7.27;;;2.23;;
78372;SDS011;67656;52.074;4.758;2023-04-19T20:30:45;3.73;;;1.77;;
78372;SDS011;67656;52.074;4.758;2023-04-19T20:35:45;5.87;;;1.70;;
78372;SDS011;67656;52.074;4.758;2023-04-19T20:40:46;3.83;;;2.03;;
78372;SDS011;67656;52.074;4.758;2023-04-19T20:45:46;3.27;;;1.67;;
78372;SDS011;67656;52.074;4.758;2023-04-19T20:50:46;4.50;;;2.00;;
78372;SDS011;67656;52.074;4.758;2023-04-19T20:55:49;5.40;;;2.00;;
78372;SDS011;67656;52.074;4.758;2023-04-19T21:00:50;4.70;;;2.03;;
78372;SDS011;67656;52.074;4.758;2023-04-19T21:05:50;6.57;;;1.93;;
78372;SDS011;67656;52.074;4.758;2023-04-19T21:10:51;5.13;;;2.13;;
78372;SDS011;67656;52.074;4.758;2023-04-19T21:15:51;4.43;;;2.27;;
78372;SDS011;67656;52.074;4.758;2023-04-19T21:20:51;4.50;;;2.03;;
78372;SDS011;67656;52.074;4.758;2023-04-19T21:25:52;6.17;;;2.03;;
78372;SDS011;67656;52.074;4.758;2023-04-19T21:30:52;4.03;;;2.10;;
78372;SDS011;67656;52.074;4.758;2023-04-19T21:35:52;4.70;;;2.10;;
78372;SDS011;67656;52.074;4.758;2023-04-19T21:40:53;3.97;;;1.77;;
78372;SDS011;67656;52.074;4.758;2023-04-19T21:45:53;8.93;;;2.27;;
78372;SDS011;67656;52.074;4.758;2023-04-19T21:50:53;4.13;;;2.10;;
78372;SDS011;67656;52.074;4.758;2023-04-19T21:55:54;6.37;;;2.00;;
78372;SDS011;67656;52.074;4.758;2023-04-19T22:00:55;3.47;;;1.83;;
78372;SDS011;67656;52.074;4.758;2023-04-19T22:05:55;4.90;;;2.00;;
78372;SDS011;67656;52.074;4.758;2023-04-19T22:10:55;4.20;;;1.73;;
78372;SDS011;67656;52.074;4.758;2023-04-19T22:15:56;2.83;;;1.47;;
78372;SDS011;67656;52.074;4.758;2023-04-19T22:20:56;2.53;;;1.43;;
78372;SDS011;67656;52.074;4.758;2023-04-19T22:25:56;3.80;;;1.70;;
78372;SDS011;67656;52.074;4.758;2023-04-19T22:30:57;3.73;;;1.67;;
78372;SDS011;67656;52.074;4.758;2023-04-19T22:35:57;5.90;;;1.60;;
78372;SDS011;67656;52.074;4.758;2023-04-19T22:40:57;6.13;;;1.83;;
78372;SDS011;67656;52.074;4.758;2023-04-19T22:45:59;3.87;;;1.80;;
78372;SDS011;67656;52.074;4.758;2023-04-19T22:51:00;4.87;;;1.73;;
78372;SDS011;67656;52.074;4.758;2023-04-19T22:56:00;3.73;;;1.90;;
78372;SDS011;67656;52.074;4.758;2023-04-19T23:01:01;3.77;;;1.67;;
78372;SDS011;67656;52.074;4.758;2023-04-19T23:06:01;4.50;;;1.83;;
78372;SDS011;67656;52.074;4.758;2023-04-19T23:11:02;3.43;;;1.80;;
78372;SDS011;67656;52.074;4.758;2023-04-19T23:16:03;3.40;;;1.43;;
78372;SDS011;67656;52.074;4.758;2023-04-19T23:21:03;3.97;;;1.43;;
78372;SDS011;67656;52.074;4.758;2023-04-19T23:26:04;2.87;;;1.50;;
78372;SDS011;67656;52.074;4.758;2023-04-19T23:31:04;3.30;;;1.70;;
78372;SDS011;67656;52.074;4.758;2023-04-19T23:36:05;5.97;;;1.50;;
78372;SDS011;67656;52.074;4.758;2023-04-19T23:41:08;3.67;;;1.80;;
78372;SDS011;67656;52.074;4.758;2023-04-19T23:46:09;3.65;;;1.90;;
78372;SDS011;67656;52.074;4.758;2023-04-19T23:51:10;5.30;;;1.60;;
78372;SDS011;67656;52.074;4.758;2023-04-19T23:56:10;2.97;;;1.30;;
